Terminal Aerodrome Forecast
Issued by NWS

Home | Current Version | Previous Version | Text Only | Print | Product List | Glossary On
Versions: 1 2 3 4 5 6 7 8 9 10 11 12 13 14 15 16
000
FTUS45 KTFX 051128
TAFLWT
TAF
KLWT 051128Z 0512/0612 10006KT P6SM OVC007
     FM052000 03007KT P6SM VCSH BKN035 PROB30 0522/0602 P6SM -TSRA
      OVC025CB
     FM060600 21008KT P6SM SCT025 OVC040=

USA.gov is the U.S. government's official web portal to all federal, state and local government web resources and services.